sensor_id;sensor_type;location;lat;lon;timestamp;pressure;altitude;pressure_sealevel;temperature;humidity
72226;BME280;60130;52.250;5.048;2023-02-15T00:00:00;388.7;;;2.9;88.0
72226;BME280;60130;52.250;5.048;2023-02-15T00:05:00;388.8;;;2.9;87.4
72226;BME280;60130;52.250;5.048;2023-02-15T00:10:00;388.7;;;2.9;87.2
72226;BME280;60130;52.250;5.048;2023-02-15T00:15:00;388.7;;;2.9;87.8
72226;BME280;60130;52.250;5.048;2023-02-15T00:20:00;388.6;;;2.6;88.3
72226;BME280;60130;52.250;5.048;2023-02-15T00:25:00;388.4;;;2.4;89.0
72226;BME280;60130;52.250;5.048;2023-02-15T00:30:00;388.4;;;2.4;89.3
72226;BME280;60130;52.250;5.048;2023-02-15T00:35:00;388.1;;;2.0;88.9
72226;BME280;60130;52.250;5.048;2023-02-15T00:40:01;388.0;;;1.9;90.0
72226;BME280;60130;52.250;5.048;2023-02-15T00:45:00;387.9;;;1.7;90.1
72226;BME280;60130;52.250;5.048;2023-02-15T00:50:00;387.9;;;1.7;90.4
72226;BME280;60130;52.250;5.048;2023-02-15T00:55:00;387.8;;;1.5;90.3
72226;BME280;60130;52.250;5.048;2023-02-15T01:00:00;387.7;;;1.4;90.7
72226;BME280;60130;52.250;5.048;2023-02-15T01:05:00;387.7;;;1.3;91.0
72226;BME280;60130;52.250;5.048;2023-02-15T01:10:00;387.8;;;1.5;91.7
72226;BME280;60130;52.250;5.048;2023-02-15T01:15:00;387.9;;;1.6;91.0
72226;BME280;60130;52.250;5.048;2023-02-15T01:20:00;387.9;;;1.7;90.6
72226;BME280;60130;52.250;5.048;2023-02-15T01:25:00;387.9;;;1.7;91.0
72226;BME280;60130;52.250;5.048;2023-02-15T01:30:00;387.8;;;1.6;90.5
72226;BME280;60130;52.250;5.048;2023-02-15T01:35:00;387.9;;;1.6;91.0
72226;BME280;60130;52.250;5.048;2023-02-15T01:40:00;388.0;;;1.8;91.8
72226;BME280;60130;52.250;5.048;2023-02-15T01:45:02;388.0;;;1.8;91.7
72226;BME280;60130;52.250;5.048;2023-02-15T01:50:03;387.9;;;1.7;91.4
72226;BME280;60130;52.250;5.048;2023-02-15T01:55:00;387.9;;;1.7;91.4
72226;BME280;60130;52.250;5.048;2023-02-15T02:00:03;387.9;;;1.7;91.2
72226;BME280;60130;52.250;5.048;2023-02-15T02:05:01;387.9;;;1.6;91.2
72226;BME280;60130;52.250;5.048;2023-02-15T02:10:01;387.9;;;1.6;91.4
72226;BME280;60130;52.250;5.048;2023-02-15T02:15:00;388.0;;;1.8;91.7
72226;BME280;60130;52.250;5.048;2023-02-15T02:20:15;388.1;;;2.0;92.0
72226;BME280;60130;52.250;5.048;2023-02-15T02:25:12;388.2;;;2.1;91.9
72226;BME280;60130;52.250;5.048;2023-02-15T02:30:11;388.3;;;2.3;91.4
72226;BME280;60130;52.250;5.048;2023-02-15T02:35:04;388.4;;;2.4;91.1
72226;BME280;60130;52.250;5.048;2023-02-15T02:40:04;388.5;;;2.5;92.1
72226;BME280;60130;52.250;5.048;2023-02-15T02:45:02;388.5;;;2.6;91.7
72226;BME280;60130;52.250;5.048;2023-02-15T02:50:02;388.5;;;2.5;91.6
72226;BME280;60130;52.250;5.048;2023-02-15T02:55:01;388.4;;;2.4;91.6
72226;BME280;60130;52.250;5.048;2023-02-15T03:00:02;388.2;;;2.2;91.4
72226;BME280;60130;52.250;5.048;2023-02-15T03:05:03;388.2;;;2.1;91.7
72226;BME280;60130;52.250;5.048;2023-02-15T03:10:02;388.2;;;2.1;91.1
72226;BME280;60130;52.250;5.048;2023-02-15T03:15:03;388.0;;;1.9;90.8
72226;BME280;60130;52.250;5.048;2023-02-15T03:20:04;388.0;;;1.8;90.6
72226;BME280;60130;52.250;5.048;2023-02-15T03:25:04;388.0;;;1.8;91.0
72226;BME280;60130;52.250;5.048;2023-02-15T03:30:02;388.1;;;1.9;91.2
72226;BME280;60130;52.250;5.048;2023-02-15T03:35:00;388.3;;;2.2;91.7
72226;BME280;60130;52.250;5.048;2023-02-15T03:40:02;388.3;;;2.2;91.5
72226;BME280;60130;52.250;5.048;2023-02-15T03:45:03;388.4;;;2.4;91.7
72226;BME280;60130;52.250;5.048;2023-02-15T03:50:02;388.5;;;2.5;91.5
72226;BME280;60130;52.250;5.048;2023-02-15T03:55:00;388.5;;;2.5;91.4
72226;BME280;60130;52.250;5.048;2023-02-15T04:00:03;388.5;;;2.5;91.6
72226;BME280;60130;52.250;5.048;2023-02-15T04:05:00;388.5;;;2.6;92.0
72226;BME280;60130;52.250;5.048;2023-02-15T04:10:00;388.6;;;2.6;91.9
72226;BME280;60130;52.250;5.048;2023-02-15T04:15:00;388.6;;;2.7;91.6
72226;BME280;60130;52.250;5.048;2023-02-15T04:20:00;388.6;;;2.6;91.8
72226;BME280;60130;52.250;5.048;2023-02-15T04:25:00;388.6;;;2.7;91.2
72226;BME280;60130;52.250;5.048;2023-02-15T04:30:00;388.6;;;2.7;91.2
72226;BME280;60130;52.250;5.048;2023-02-15T04:35:00;388.6;;;2.6;90.8
72226;BME280;60130;52.250;5.048;2023-02-15T04:40:00;388.5;;;2.6;91.0
72226;BME280;60130;52.250;5.048;2023-02-15T04:45:00;388.6;;;2.7;91.5
72226;BME280;60130;52.250;5.048;2023-02-15T04:50:00;388.7;;;2.8;91.6
72226;BME280;60130;52.250;5.048;2023-02-15T04:55:00;388.7;;;2.9;91.7
72226;BME280;60130;52.250;5.048;2023-02-15T05:00:00;388.8;;;2.9;91.6
72226;BME280;60130;52.250;5.048;2023-02-15T05:05:00;388.7;;;2.9;91.2
72226;BME280;60130;52.250;5.048;2023-02-15T05:10:00;388.7;;;2.9;91.0
72226;BME280;60130;52.250;5.048;2023-02-15T05:15:00;388.7;;;2.8;91.0
72226;BME280;60130;52.250;5.048;2023-02-15T05:20:00;388.7;;;2.8;91.4
72226;BME280;60130;52.250;5.048;2023-02-15T05:25:00;388.7;;;2.8;91.7
72226;BME280;60130;52.250;5.048;2023-02-15T05:30:00;388.7;;;2.8;91.7
72226;BME280;60130;52.250;5.048;2023-02-15T05:35:00;388.6;;;2.7;92.0
72226;BME280;60130;52.250;5.048;2023-02-15T05:40:00;388.6;;;2.7;91.5
72226;BME280;60130;52.250;5.048;2023-02-15T05:45:00;388.6;;;2.7;91.5
72226;BME280;60130;52.250;5.048;2023-02-15T05:50:00;388.6;;;2.7;91.7
72226;BME280;60130;52.250;5.048;2023-02-15T05:55:00;388.6;;;2.7;91.5
72226;BME280;60130;52.250;5.048;2023-02-15T06:00:00;388.5;;;2.6;91.7
72226;BME280;60130;52.250;5.048;2023-02-15T06:05:00;388.5;;;2.6;92.1
72226;BME280;60130;52.250;5.048;2023-02-15T06:10:00;388.5;;;2.5;92.0
72226;BME280;60130;52.250;5.048;2023-02-15T06:15:00;388.5;;;2.5;92.2
72226;BME280;60130;52.250;5.048;2023-02-15T06:20:00;388.4;;;2.5;92.2
72226;BME280;60130;52.250;5.048;2023-02-15T06:25:01;388.4;;;2.4;92.3
72226;BME280;60130;52.250;5.048;2023-02-15T06:30:00;388.4;;;2.4;92.4
72226;BME280;60130;52.250;5.048;2023-02-15T06:35:00;388.4;;;2.4;92.3
72226;BME280;60130;52.250;5.048;2023-02-15T06:40:00;388.4;;;2.4;92.4
72226;BME280;60130;52.250;5.048;2023-02-15T06:45:00;388.4;;;2.4;92.5
72226;BME280;60130;52.250;5.048;2023-02-15T06:50:00;388.4;;;2.4;92.5
72226;BME280;60130;52.250;5.048;2023-02-15T06:55:00;388.4;;;2.4;92.5
72226;BME280;60130;52.250;5.048;2023-02-15T07:00:00;388.4;;;2.4;92.4
72226;BME280;60130;52.250;5.048;2023-02-15T07:05:00;388.4;;;2.4;92.4
72226;BME280;60130;52.250;5.048;2023-02-15T07:10:00;388.4;;;2.5;92.2
72226;BME280;60130;52.250;5.048;2023-02-15T07:15:00;388.5;;;2.5;92.0
72226;BME280;60130;52.250;5.048;2023-02-15T07:20:00;388.5;;;2.6;92.1
72226;BME280;60130;52.250;5.048;2023-02-15T07:25:00;388.5;;;2.6;92.0
72226;BME280;60130;52.250;5.048;2023-02-15T07:30:00;388.6;;;2.7;92.2
72226;BME280;60130;52.250;5.048;2023-02-15T07:35:00;388.6;;;2.7;92.0
72226;BME280;60130;52.250;5.048;2023-02-15T07:40:00;388.6;;;2.7;91.9
72226;BME280;60130;52.250;5.048;2023-02-15T07:45:00;388.7;;;2.9;91.8
72226;BME280;60130;52.250;5.048;2023-02-15T07:50:00;388.8;;;3.0;91.6
72226;BME280;60130;52.250;5.048;2023-02-15T07:55:00;388.8;;;3.0;91.5
72226;BME280;60130;52.250;5.048;2023-02-15T08:00:00;388.9;;;3.1;91.2
72226;BME280;60130;52.250;5.048;2023-02-15T08:05:00;388.9;;;3.1;91.3
72226;BME280;60130;52.250;5.048;2023-02-15T08:10:00;388.9;;;3.1;91.3
72226;BME280;60130;52.250;5.048;2023-02-15T08:15:00;388.9;;;3.2;91.4
72226;BME280;60130;52.250;5.048;2023-02-15T08:20:00;389.0;;;3.2;91.4
72226;BME280;60130;52.250;5.048;2023-02-15T08:25:00;389.1;;;3.4;91.4
72226;BME280;60130;52.250;5.048;2023-02-15T08:30:00;389.1;;;3.5;91.2
72226;BME280;60130;52.250;5.048;2023-02-15T08:35:00;389.2;;;3.6;91.1
72226;BME280;60130;52.250;5.048;2023-02-15T08:40:00;389.3;;;3.8;91.0
72226;BME280;60130;52.250;5.048;2023-02-15T08:45:00;389.4;;;3.9;90.8
72226;BME280;60130;52.250;5.048;2023-02-15T08:50:00;389.5;;;3.9;90.7
72226;BME280;60130;52.250;5.048;2023-02-15T08:55:00;389.6;;;4.2;90.5
72226;BME280;60130;52.250;5.048;2023-02-15T09:00:00;389.8;;;4.5;90.2
72226;BME280;60130;52.250;5.048;2023-02-15T09:05:00;389.9;;;4.6;90.0
72226;BME280;60130;52.250;5.048;2023-02-15T09:10:00;390.0;;;4.7;89.5
72226;BME280;60130;52.250;5.048;2023-02-15T09:15:00;390.1;;;4.9;89.3
72226;BME280;60130;52.250;5.048;2023-02-15T09:20:00;390.2;;;5.1;88.6
72226;BME280;60130;52.250;5.048;2023-02-15T09:25:00;390.2;;;5.1;88.7
72226;BME280;60130;52.250;5.048;2023-02-15T09:30:00;390.3;;;5.2;88.2
72226;BME280;60130;52.250;5.048;2023-02-15T09:35:00;390.4;;;5.3;87.9
72226;BME280;60130;52.250;5.048;2023-02-15T09:40:00;390.7;;;5.7;87.5
72226;BME280;60130;52.250;5.048;2023-02-15T09:45:08;390.8;;;5.9;87.1
72226;BME280;60130;52.250;5.048;2023-02-15T09:50:05;391.0;;;6.1;86.6
72226;BME280;60130;52.250;5.048;2023-02-15T09:55:08;391.0;;;6.2;85.8
72226;BME280;60130;52.250;5.048;2023-02-15T10:00:07;391.1;;;6.3;85.7
72226;BME280;60130;52.250;5.048;2023-02-15T10:05:13;391.3;;;6.6;84.6
72226;BME280;60130;52.250;5.048;2023-02-15T10:10:08;391.4;;;6.8;84.1
72226;BME280;60130;52.250;5.048;2023-02-15T10:15:15;391.5;;;7.0;83.0
72226;BME280;60130;52.250;5.048;2023-02-15T10:20:11;391.7;;;7.3;82.4
72226;BME280;60130;52.250;5.048;2023-02-15T10:25:07;391.8;;;7.4;82.1
72226;BME280;60130;52.250;5.048;2023-02-15T10:30:06;392.0;;;7.6;81.5
72226;BME280;60130;52.250;5.048;2023-02-15T10:35:01;392.0;;;7.6;81.4
72226;BME280;60130;52.250;5.048;2023-02-15T10:40:04;392.1;;;7.8;81.4
72226;BME280;60130;52.250;5.048;2023-02-15T10:45:07;392.3;;;8.1;80.8
72226;BME280;60130;52.250;5.048;2023-02-15T10:50:12;392.4;;;8.2;79.4
72226;BME280;60130;52.250;5.048;2023-02-15T10:55:05;392.5;;;8.4;79.2
72226;BME280;60130;52.250;5.048;2023-02-15T11:00:07;392.5;;;8.4;78.0
72226;BME280;60130;52.250;5.048;2023-02-15T11:05:14;392.5;;;8.4;77.4
72226;BME280;60130;52.250;5.048;2023-02-15T11:10:07;392.6;;;8.5;77.6
72226;BME280;60130;52.250;5.048;2023-02-15T11:15:04;392.7;;;8.6;77.4
72226;BME280;60130;52.250;5.048;2023-02-15T11:20:08;393.0;;;9.1;76.9
72226;BME280;60130;52.250;5.048;2023-02-15T11:25:01;393.2;;;9.3;75.9
72226;BME280;60130;52.250;5.048;2023-02-15T11:30:02;393.2;;;9.4;75.1
72226;BME280;60130;52.250;5.048;2023-02-15T11:35:03;393.3;;;9.6;74.5
72226;BME280;60130;52.250;5.048;2023-02-15T11:40:02;393.5;;;9.8;74.7
72226;BME280;60130;52.250;5.048;2023-02-15T11:45:06;393.3;;;9.6;74.9
72226;BME280;60130;52.250;5.048;2023-02-15T11:50:00;393.3;;;9.5;74.4
72226;BME280;60130;52.250;5.048;2023-02-15T11:55:00;393.5;;;9.8;74.5
72226;BME280;60130;52.250;5.048;2023-02-15T12:00:02;393.6;;;10.0;73.8
72226;BME280;60130;52.250;5.048;2023-02-15T12:05:03;393.8;;;10.2;73.7
72226;BME280;60130;52.250;5.048;2023-02-15T12:10:03;393.9;;;10.4;72.9
72226;BME280;60130;52.250;5.048;2023-02-15T12:15:01;394.1;;;10.7;72.6
72226;BME280;60130;52.250;5.048;2023-02-15T12:20:02;394.1;;;10.8;71.3
72226;BME280;60130;52.250;5.048;2023-02-15T12:25:02;394.4;;;11.2;71.3
72226;BME280;60130;52.250;5.048;2023-02-15T12:30:04;394.6;;;11.5;70.0
72226;BME280;60130;52.250;5.048;2023-02-15T12:35:02;394.8;;;11.7;70.0
72226;BME280;60130;52.250;5.048;2023-02-15T12:40:02;394.8;;;11.7;69.4
72226;BME280;60130;52.250;5.048;2023-02-15T12:45:01;395.0;;;11.9;68.8
72226;BME280;60130;52.250;5.048;2023-02-15T12:50:05;395.1;;;12.1;68.6
72226;BME280;60130;52.250;5.048;2023-02-15T12:55:11;395.2;;;12.4;67.5
72226;BME280;60130;52.250;5.048;2023-02-15T13:00:02;395.2;;;12.3;67.6
72226;BME280;60130;52.250;5.048;2023-02-15T13:05:10;395.1;;;12.2;68.2
72226;BME280;60130;52.250;5.048;2023-02-15T13:10:00;395.0;;;11.9;69.2
72226;BME280;60130;52.250;5.048;2023-02-15T13:15:00;394.8;;;11.7;70.5
72226;BME280;60130;52.250;5.048;2023-02-15T13:20:03;394.7;;;11.6;71.6
72226;BME280;60130;52.250;5.048;2023-02-15T13:25:03;394.6;;;11.4;71.4
72226;BME280;60130;52.250;5.048;2023-02-15T13:30:03;394.6;;;11.4;71.7
72226;BME280;60130;52.250;5.048;2023-02-15T13:35:01;394.6;;;11.4;72.1
72226;BME280;60130;52.250;5.048;2023-02-15T13:40:02;394.6;;;11.4;72.1
72226;BME280;60130;52.250;5.048;2023-02-15T13:45:09;394.6;;;11.4;71.6
72226;BME280;60130;52.250;5.048;2023-02-15T13:50:07;394.5;;;11.3;71.8
72226;BME280;60130;52.250;5.048;2023-02-15T13:55:18;394.5;;;11.3;71.9
72226;BME280;60130;52.250;5.048;2023-02-15T14:00:04;394.7;;;11.5;72.0
72226;BME280;60130;52.250;5.048;2023-02-15T14:05:15;394.8;;;11.7;71.4
72226;BME280;60130;52.250;5.048;2023-02-15T14:10:06;394.8;;;11.7;70.5
72226;BME280;60130;52.250;5.048;2023-02-15T14:15:10;394.9;;;11.8;70.3
72226;BME280;60130;52.250;5.048;2023-02-15T14:20:06;395.0;;;11.9;69.8
72226;BME280;60130;52.250;5.048;2023-02-15T14:25:11;395.0;;;12.1;69.5
72226;BME280;60130;52.250;5.048;2023-02-15T14:30:03;394.8;;;11.7;68.8
72226;BME280;60130;52.250;5.048;2023-02-15T14:35:02;394.9;;;11.8;69.4
72226;BME280;60130;52.250;5.048;2023-02-15T14:40:03;394.7;;;11.6;70.3
72226;BME280;60130;52.250;5.048;2023-02-15T14:45:04;394.8;;;11.7;69.8
72226;BME280;60130;52.250;5.048;2023-02-15T14:55:00;394.9;;;11.9;70.0
72226;BME280;60130;52.250;5.048;2023-02-15T15:00:15;394.8;;;11.8;69.6
72226;BME280;60130;52.250;5.048;2023-02-15T15:05:06;394.8;;;11.7;69.9
72226;BME280;60130;52.250;5.048;2023-02-15T15:10:03;394.7;;;11.5;70.1
72226;BME280;60130;52.250;5.048;2023-02-15T15:15:00;394.5;;;11.3;70.4
72226;BME280;60130;52.250;5.048;2023-02-15T15:20:01;394.6;;;11.4;70.7
72226;BME280;60130;52.250;5.048;2023-02-15T15:25:00;394.5;;;11.4;71.0
72226;BME280;60130;52.250;5.048;2023-02-15T15:30:00;394.5;;;11.2;71.6
72226;BME280;60130;52.250;5.048;2023-02-15T15:35:13;394.4;;;11.2;71.3
72226;BME280;60130;52.250;5.048;2023-02-15T15:40:18;394.4;;;11.2;71.7
72226;BME280;60130;52.250;5.048;2023-02-15T15:45:18;394.3;;;11.0;72.4
72226;BME280;60130;52.250;5.048;2023-02-15T15:50:00;394.2;;;10.8;73.2
72226;BME280;60130;52.250;5.048;2023-02-15T15:55:03;394.0;;;10.6;73.8
72226;BME280;60130;52.250;5.048;2023-02-15T16:00:01;394.0;;;10.5;74.0
72226;BME280;60130;52.250;5.048;2023-02-15T16:05:07;393.8;;;10.3;75.0
72226;BME280;60130;52.250;5.048;2023-02-15T16:10:02;393.8;;;10.2;75.4
72226;BME280;60130;52.250;5.048;2023-02-15T16:15:02;393.7;;;10.1;75.8
72226;BME280;60130;52.250;5.048;2023-02-15T16:20:03;393.6;;;10.0;76.3
72226;BME280;60130;52.250;5.048;2023-02-15T16:25:11;393.5;;;9.9;76.5
72226;BME280;60130;52.250;5.048;2023-02-15T16:35:02;393.3;;;9.6;77.0
72226;BME280;60130;52.250;5.048;2023-02-15T16:40:00;393.3;;;9.5;76.6
72226;BME280;60130;52.250;5.048;2023-02-15T16:45:03;393.3;;;9.6;76.1
72226;BME280;60130;52.250;5.048;2023-02-15T16:50:01;393.2;;;9.5;76.4
72226;BME280;60130;52.250;5.048;2023-02-15T16:55:03;393.1;;;9.2;76.9
72226;BME280;60130;52.250;5.048;2023-02-15T17:00:03;393.1;;;9.3;76.6
72226;BME280;60130;52.250;5.048;2023-02-15T17:05:07;393.1;;;9.2;76.5
72226;BME280;60130;52.250;5.048;2023-02-15T17:10:00;393.0;;;9.1;76.4
72226;BME280;60130;52.250;5.048;2023-02-15T17:15:00;393.1;;;9.2;76.2
72226;BME280;60130;52.250;5.048;2023-02-15T17:20:00;393.1;;;9.3;76.0
72226;BME280;60130;52.250;5.048;2023-02-15T17:25:02;393.0;;;9.2;76.4
72226;BME280;60130;52.250;5.048;2023-02-15T17:30:03;393.1;;;9.2;76.2
72226;BME280;60130;52.250;5.048;2023-02-15T17:35:07;393.0;;;9.1;76.6
72226;BME280;60130;52.250;5.048;2023-02-15T17:40:01;393.0;;;9.0;76.8
72226;BME280;60130;52.250;5.048;2023-02-15T17:45:00;392.9;;;9.0;76.8
72226;BME280;60130;52.250;5.048;2023-02-15T17:50:01;392.8;;;8.8;77.5
72226;BME280;60130;52.250;5.048;2023-02-15T17:55:07;392.7;;;8.7;77.9
72226;BME280;60130;52.250;5.048;2023-02-15T18:00:00;392.6;;;8.6;78.6
72226;BME280;60130;52.250;5.048;2023-02-15T18:05:00;392.7;;;8.6;78.5
72226;BME280;60130;52.250;5.048;2023-02-15T18:10:00;392.7;;;8.7;78.3
72226;BME280;60130;52.250;5.048;2023-02-15T18:15:00;392.7;;;8.6;78.4
72226;BME280;60130;52.250;5.048;2023-02-15T18:20:01;392.7;;;8.7;78.0
72226;BME280;60130;52.250;5.048;2023-02-15T18:25:00;392.8;;;8.8;77.6
72226;BME280;60130;52.250;5.048;2023-02-15T18:30:00;392.9;;;8.9;77.1
72226;BME280;60130;52.250;5.048;2023-02-15T18:35:01;392.9;;;8.9;77.1
72226;BME280;60130;52.250;5.048;2023-02-15T18:40:00;392.8;;;8.8;77.3
72226;BME280;60130;52.250;5.048;2023-02-15T18:45:11;392.7;;;8.7;77.5
72226;BME280;60130;52.250;5.048;2023-02-15T18:50:00;392.8;;;8.8;77.4
72226;BME280;60130;52.250;5.048;2023-02-15T18:55:02;392.7;;;8.7;77.5
72226;BME280;60130;52.250;5.048;2023-02-15T19:00:00;392.7;;;8.7;77.4
72226;BME280;60130;52.250;5.048;2023-02-15T19:05:00;392.7;;;8.7;77.4
72226;BME280;60130;52.250;5.048;2023-02-15T19:10:01;392.8;;;8.7;77.0
72226;BME280;60130;52.250;5.048;2023-02-15T19:15:00;392.7;;;8.6;77.3
72226;BME280;60130;52.250;5.048;2023-02-15T19:20:00;392.6;;;8.5;77.6
72226;BME280;60130;52.250;5.048;2023-02-15T19:25:02;392.6;;;8.6;77.5
72226;BME280;60130;52.250;5.048;2023-02-15T19:30:02;392.6;;;8.6;77.4
72226;BME280;60130;52.250;5.048;2023-02-15T19:35:00;392.6;;;8.5;77.5
72226;BME280;60130;52.250;5.048;2023-02-15T19:40:00;392.6;;;8.5;77.4
72226;BME280;60130;52.250;5.048;2023-02-15T19:45:00;392.6;;;8.5;77.1
72226;BME280;60130;52.250;5.048;2023-02-15T19:50:00;392.6;;;8.5;77.1
72226;BME280;60130;52.250;5.048;2023-02-15T19:55:00;392.5;;;8.4;77.3
72226;BME280;60130;52.250;5.048;2023-02-15T20:00:00;392.5;;;8.4;77.2
72226;BME280;60130;52.250;5.048;2023-02-15T20:05:00;392.4;;;8.2;77.9
72226;BME280;60130;52.250;5.048;2023-02-15T20:10:00;392.3;;;8.1;78.1
72226;BME280;60130;52.250;5.048;2023-02-15T20:15:00;392.4;;;8.2;77.9
72226;BME280;60130;52.250;5.048;2023-02-15T20:20:00;392.4;;;8.3;77.3
72226;BME280;60130;52.250;5.048;2023-02-15T20:25:00;392.4;;;8.2;77.4
72226;BME280;60130;52.250;5.048;2023-02-15T20:30:00;392.4;;;8.3;77.0
72226;BME280;60130;52.250;5.048;2023-02-15T20:35:00;392.4;;;8.3;77.0
72226;BME280;60130;52.250;5.048;2023-02-15T20:40:00;392.3;;;8.1;77.2
72226;BME280;60130;52.250;5.048;2023-02-15T20:45:00;392.2;;;7.9;78.0
72226;BME280;60130;52.250;5.048;2023-02-15T20:50:00;392.1;;;7.7;78.6
72226;BME280;60130;52.250;5.048;2023-02-15T20:55:00;392.0;;;7.7;78.8
72226;BME280;60130;52.250;5.048;2023-02-15T21:00:00;392.0;;;7.7;78.9
72226;BME280;60130;52.250;5.048;2023-02-15T21:05:00;391.9;;;7.6;79.1
72226;BME280;60130;52.250;5.048;2023-02-15T21:10:00;391.9;;;7.5;79.4
72226;BME280;60130;52.250;5.048;2023-02-15T21:15:00;391.9;;;7.5;79.3
72226;BME280;60130;52.250;5.048;2023-02-15T21:20:00;391.9;;;7.5;79.3
72226;BME280;60130;52.250;5.048;2023-02-15T21:25:00;392.0;;;7.7;78.6
72226;BME280;60130;52.250;5.048;2023-02-15T21:30:00;392.1;;;7.8;78.2
72226;BME280;60130;52.250;5.048;2023-02-15T21:35:00;392.1;;;7.8;77.8
72226;BME280;60130;52.250;5.048;2023-02-15T21:40:00;392.1;;;7.8;77.7
72226;BME280;60130;52.250;5.048;2023-02-15T21:45:00;392.1;;;7.8;77.7
72226;BME280;60130;52.250;5.048;2023-02-15T21:50:00;392.0;;;7.7;77.9
72226;BME280;60130;52.250;5.048;2023-02-15T21:55:00;392.0;;;7.7;77.9
72226;BME280;60130;52.250;5.048;2023-02-15T22:00:01;392.0;;;7.7;77.8
72226;BME280;60130;52.250;5.048;2023-02-15T22:05:00;392.0;;;7.7;77.8
72226;BME280;60130;52.250;5.048;2023-02-15T22:10:00;392.0;;;7.6;77.9
72226;BME280;60130;52.250;5.048;2023-02-15T22:15:00;391.9;;;7.6;78.1
72226;BME280;60130;52.250;5.048;2023-02-15T22:20:00;391.9;;;7.4;78.5
72226;BME280;60130;52.250;5.048;2023-02-15T22:25:00;391.8;;;7.4;78.7
72226;BME280;60130;52.250;5.048;2023-02-15T22:30:00;391.6;;;7.1;79.3
72226;BME280;60130;52.250;5.048;2023-02-15T22:35:00;391.6;;;7.1;79.5
72226;BME280;60130;52.250;5.048;2023-02-15T22:40:00;391.5;;;7.0;79.8
72226;BME280;60130;52.250;5.048;2023-02-15T22:45:00;391.5;;;6.9;80.2
72226;BME280;60130;52.250;5.048;2023-02-15T22:50:00;391.5;;;6.9;80.1
72226;BME280;60130;52.250;5.048;2023-02-15T22:55:00;391.5;;;6.9;80.4
72226;BME280;60130;52.250;5.048;2023-02-15T23:00:00;391.5;;;6.9;80.5
72226;BME280;60130;52.250;5.048;2023-02-15T23:05:00;391.4;;;6.7;80.8
72226;BME280;60130;52.250;5.048;2023-02-15T23:10:00;391.3;;;6.6;81.2
72226;BME280;60130;52.250;5.048;2023-02-15T23:15:00;391.3;;;6.6;81.4
72226;BME280;60130;52.250;5.048;2023-02-15T23:20:00;391.3;;;6.7;81.6
72226;BME280;60130;52.250;5.048;2023-02-15T23:25:00;391.4;;;6.7;81.9
72226;BME280;60130;52.250;5.048;2023-02-15T23:30:01;391.4;;;6.7;82.1
72226;BME280;60130;52.250;5.048;2023-02-15T23:35:00;391.4;;;6.8;82.1
72226;BME280;60130;52.250;5.048;2023-02-15T23:40:00;391.4;;;6.8;81.9
72226;BME280;60130;52.250;5.048;2023-02-15T23:45:01;391.4;;;6.8;82.1
72226;BME280;60130;52.250;5.048;2023-02-15T23:50:00;391.4;;;6.8;81.9
72226;BME280;60130;52.250;5.048;2023-02-15T23:55:00;391.3;;;6.7;82.6
